KMUO/MUO METAR and TAF weather

Enter ICAO airport designator
Station Type Date Time Source
KMUO METAR 2020/03/31 04:58 UTC NOAA

KMUO 310458Z AUTO 22007KT 10SM SCT070 BKN095 12/00 A2997 RMK AO2 SLP144 T01170002 $


Station Type Date Time Source
KMUO Decoded METAR 2020/03/31 04:58 UTC NOAA

Mountain Home Air Force Base, ID, United States (KMUO) 43-03N 115-52W
Mar 31, 2020 - 12:58 AM EDT / 2020.03.31 0458 UTC
Wind: from the SW (220 degrees) at 8 MPH (7 KT):0
Visibility: 10 mile(s):0
Sky conditions: mostly cloudy
Temperature: 53.1 F (11.7 C)
Dew Point: 32.4 F (0.2 C)
Relative Humidity: 45%
Pressure (altimeter): 29.97 in. Hg (1014 hPa)
ob: KMUO 310458Z AUTO 22007KT 10SM SCT070 BKN095 12/00 A2997 RMK AO2 SLP144 T01170002
cycle: 5

Station Type Date Time Source
KMUO TAF 2020/03/31 00:06 UTC NOAA

TAF TAF
AMD KMUO 310000Z 3100/3124 19009KT 9999 VCSH SCT050 BKN080 OVC110 610406 510009 QNH3000INS
TEMPO 3100/3103 20015G25KT 9000 -SHRA BKN040
BECMG 3107/3108 11010G15KT 6000 -RA SCT020 OVC030 620308 QNH2997INS
BECMG 3114/3115 34010G15KT 4800 -RA SCT010 OVC020 620209 QNH2994INS
BECMG 3118/3119 34015G25KT 8000 -SHRA SCT015 BKN030 OVC090 620307 510009 QNH2990INS TX12/3100Z TN04/3112Z LAST NO
AMDS AFT 3100 NEXT 0110

Example: see airport list